Time;durP1;ratioP1;P1;durP2;ratioP2;P2;SDS_P1;SDS_P2;PMS_P1;PMS_P2;Temp;Humidity;BMP_temperature;BMP_pressure;BME280_temperature;BME280_humidity;BME280_pressure;Samples;Min_cycle;Max_cycle;Signal;HPM_P1;HPM_P2
2021/03/19 00:00:11;;;;;;;239.40;117.65;;;2.90;99.90;;;;;;4999099;28;20069;-74
2021/03/19 00:02:38;;;;;;;208.48;102.65;;;2.90;99.90;;;;;;5003124;28;20089;-71
2021/03/19 00:05:13;;;;;;;145.70;80.13;;;2.90;99.90;;;;;;5003520;28;20062;-66
2021/03/19 00:07:52;;;;;;;98.80;57.95;;;2.90;99.90;;;;;;5001984;28;20440;-66
2021/03/19 00:10:22;;;;;;;199.40;95.57;;;2.80;99.90;;;;;;5001018;28;20089;-71
2021/03/19 00:12:49;;;;;;;335.92;153.10;;;2.80;99.90;;;;;;5000504;28;20023;-71
2021/03/19 00:15:17;;;;;;;335.55;148.55;;;2.80;99.90;;;;;;5002533;28;20022;-70
2021/03/19 00:17:43;;;;;;;431.65;195.82;;;2.80;99.90;;;;;;5002307;28;20042;-71
2021/03/19 00:20:10;;;;;;;138.05;73.68;;;2.80;99.90;;;;;;5003939;28;20081;-68
2021/03/19 00:22:38;;;;;;;86.72;52.83;;;2.80;99.90;;;;;;5001412;28;20014;-72
2021/03/19 00:25:05;;;;;;;62.60;37.42;;;2.70;99.90;;;;;;5003287;28;20085;-65
2021/03/19 00:27:32;;;;;;;86.90;54.88;;;2.70;99.90;;;;;;4998859;28;20030;-70
2021/03/19 00:29:58;;;;;;;89.82;54.72;;;2.60;99.90;;;;;;5002803;28;20026;-64
2021/03/19 00:32:24;;;;;;;75.00;48.38;;;2.60;99.90;;;;;;5001996;28;20551;-67
2021/03/19 00:34:50;;;;;;;87.20;54.20;;;2.60;99.90;;;;;;5003470;28;20484;-67
2021/03/19 00:37:16;;;;;;;107.40;65.93;;;2.40;99.90;;;;;;5001660;28;20029;-64
2021/03/19 00:39:42;;;;;;;125.03;75.70;;;2.40;99.90;;;;;;5000704;28;20023;-70
2021/03/19 00:42:09;;;;;;;132.48;74.72;;;2.40;99.90;;;;;;5000486;28;20093;-71
2021/03/19 00:44:39;;;;;;;91.88;54.90;;;2.50;99.90;;;;;;5002915;28;20369;-68
2021/03/19 00:47:05;;;;;;;148.15;76.72;;;2.50;99.90;;;;;;5000976;28;20477;-67
2021/03/19 00:49:31;;;;;;;121.00;70.53;;;2.50;99.90;;;;;;5002776;28;20491;-65
2021/03/19 00:51:57;;;;;;;201.73;100.20;;;2.50;99.90;;;;;;5000468;28;20058;-64
2021/03/19 00:54:23;;;;;;;118.32;71.32;;;2.50;99.90;;;;;;5002095;28;20033;-68
2021/03/19 00:56:49;;;;;;;173.23;90.72;;;2.40;99.90;;;;;;5001752;28;20023;-71
2021/03/19 00:59:15;;;;;;;211.25;103.82;;;2.50;99.90;;;;;;4999429;28;20025;-69
2021/03/19 01:01:41;;;;;;;282.88;127.47;;;2.60;99.90;;;;;;5001561;28;20060;-64
2021/03/19 01:04:07;;;;;;;192.00;96.13;;;2.60;99.90;;;;;;5000724;28;20027;-71
2021/03/19 01:06:33;;;;;;;228.40;105.88;;;2.60;99.90;;;;;;5001407;28;20495;-65
2021/03/19 01:08:59;;;;;;;157.48;84.03;;;2.60;99.90;;;;;;5001279;28;20025;-67
2021/03/19 01:11:29;;;;;;;172.43;86.40;;;2.70;99.90;;;;;;5001837;28;20022;-69
2021/03/19 01:13:55;;;;;;;171.02;90.10;;;2.70;99.90;;;;;;5000743;28;20019;-70
2021/03/19 01:16:21;;;;;;;103.78;59.97;;;2.70;99.90;;;;;;4999413;28;20137;-64
2021/03/19 01:18:48;;;;;;;116.72;72.70;;;2.70;99.90;;;;;;4998952;28;20114;-71
2021/03/19 01:21:15;;;;;;;106.18;64.38;;;2.70;99.90;;;;;;4997221;28;20030;-64
2021/03/19 01:23:43;;;;;;;101.10;60.08;;;2.80;99.90;;;;;;5000228;28;20021;-66
2021/03/19 01:26:11;;;;;;;100.38;61.15;;;2.70;99.90;;;;;;5000888;28;20502;-67
2021/03/19 01:28:37;;;;;;;115.70;66.63;;;2.70;99.90;;;;;;5000497;28;20030;-64
2021/03/19 01:31:03;;;;;;;106.07;63.33;;;2.70;99.90;;;;;;4999050;28;20029;-64
2021/03/19 01:33:29;;;;;;;112.03;69.97;;;2.70;99.90;;;;;;4998116;28;20026;-64
2021/03/19 01:35:55;;;;;;;104.38;62.78;;;2.60;99.90;;;;;;4997583;28;20022;-67
2021/03/19 01:38:21;;;;;;;182.32;95.03;;;2.70;99.90;;;;;;4999501;28;20025;-66
2021/03/19 01:40:50;;;;;;;231.85;113.15;;;2.60;99.90;;;;;;5002173;28;20053;-70
2021/03/19 01:43:22;;;;;;;316.23;143.85;;;2.60;99.90;;;;;;5000865;28;20006;-67
2021/03/19 01:46:25;;;;;;;249.45;119.55;;;2.60;99.90;;;;;;5000589;28;20381;-67
2021/03/19 01:49:28;;;;;;;164.82;84.70;;;2.60;99.90;;;;;;5001321;28;20022;-64
2021/03/19 01:52:31;;;;;;;136.90;70.13;;;2.60;99.90;;;;;;4999944;28;20049;-64
2021/03/19 01:55:35;;;;;;;351.25;124.05;;;2.50;99.90;;;;;;5000023;28;20018;-70
2021/03/19 01:58:37;;;;;;;446.27;167.38;;;2.60;99.90;;;;;;5001244;28;20022;-64
2021/03/19 02:01:40;;;;;;;276.58;128.95;;;2.60;99.90;;;;;;5000216;28;20421;-69
2021/03/19 02:04:43;;;;;;;152.02;76.13;;;2.60;99.90;;;;;;5000346;28;20019;-67
2021/03/19 02:08:00;;;;;;;99.85;54.47;;;2.60;99.90;;;;;;5000128;28;20054;-67
2021/03/19 02:11:03;;;;;;;65.25;39.80;;;2.70;99.90;;;;;;4976006;28;20034;-71
2021/03/19 02:14:06;;;;;;;73.43;41.72;;;2.60;99.90;;;;;;4998972;28;20449;-71
2021/03/19 02:17:09;;;;;;;60.85;38.83;;;2.60;99.90;;;;;;4998430;28;20082;-67
2021/03/19 02:20:12;;;;;;;59.83;36.33;;;2.60;99.90;;;;;;4996748;28;20045;-64
2021/03/19 02:23:15;;;;;;;56.17;34.33;;;2.50;99.90;;;;;;4999911;28;20018;-70
2021/03/19 02:26:18;;;;;;;67.97;38.80;;;2.60;99.90;;;;;;4998369;28;20038;-67
2021/03/19 02:29:21;;;;;;;120.50;70.32;;;2.60;99.90;;;;;;5001353;28;20023;-72
2021/03/19 02:31:56;;;;;;;139.10;77.50;;;2.60;99.90;;;;;;4997474;28;20428;-71
2021/03/19 02:34:29;;;;;;;121.22;70.45;;;2.60;99.90;;;;;;4997647;28;20031;-70
2021/03/19 02:36:56;;;;;;;94.97;57.15;;;2.50;99.90;;;;;;5000660;28;20073;-66
2021/03/19 02:39:23;;;;;;;75.13;46.63;;;2.60;99.90;;;;;;5000060;28;20022;-70
2021/03/19 02:41:49;;;;;;;86.57;57.17;;;2.60;99.90;;;;;;5001032;28;20070;-70
2021/03/19 02:44:15;;;;;;;106.07;67.88;;;2.50;99.90;;;;;;4999864;28;20044;-66
2021/03/19 02:46:40;;;;;;;165.00;98.70;;;2.60;99.90;;;;;;4998813;28;20026;-63
2021/03/19 02:49:06;;;;;;;139.90;84.35;;;2.60;99.90;;;;;;4997693;28;20503;-66
2021/03/19 02:51:32;;;;;;;118.43;69.68;;;2.60;99.90;;;;;;4997831;28;20061;-67
2021/03/19 02:53:58;;;;;;;119.00;73.85;;;2.60;99.90;;;;;;4998792;28;20140;-70
2021/03/19 02:56:24;;;;;;;80.18;50.63;;;2.50;99.90;;;;;;4998581;28;20022;-66
2021/03/19 02:58:50;;;;;;;72.65;46.47;;;2.50;99.90;;;;;;4998400;28;20026;-70
2021/03/19 03:01:16;;;;;;;73.22;46.83;;;2.50;99.90;;;;;;4997572;28;20026;-70
2021/03/19 03:03:45;;;;;;;62.67;39.75;;;2.50;99.90;;;;;;4998873;28;20535;-70
2021/03/19 03:06:11;;;;;;;61.45;38.42;;;2.50;99.90;;;;;;4997861;28;20027;-68
2021/03/19 03:08:37;;;;;;;57.08;37.25;;;2.50;99.90;;;;;;4997844;28;20429;-68
2021/03/19 03:11:03;;;;;;;59.65;37.50;;;2.40;99.90;;;;;;4998011;28;20026;-66
2021/03/19 03:13:30;;;;;;;60.55;39.47;;;2.30;99.90;;;;;;4997597;28;20065;-68
2021/03/19 03:15:56;;;;;;;67.00;41.03;;;2.40;99.90;;;;;;4997302;28;20595;-70
2021/03/19 03:18:22;;;;;;;62.95;38.05;;;2.40;99.90;;;;;;4996479;28;20019;-70
2021/03/19 03:20:55;;;;;;;60.13;38.72;;;2.40;99.90;;;;;;4998523;28;20619;-71
2021/03/19 03:23:24;;;;;;;65.53;40.08;;;2.40;99.90;;;;;;4998570;28;20049;-70
2021/03/19 03:25:50;;;;;;;67.40;42.10;;;2.40;99.90;;;;;;4998566;28;20492;-67
2021/03/19 03:28:17;;;;;;;77.63;44.40;;;2.40;99.90;;;;;;4998403;28;20034;-68
2021/03/19 03:30:48;;;;;;;74.03;43.13;;;2.40;99.90;;;;;;4997431;28;20053;-71
2021/03/19 03:33:15;;;;;;;65.50;40.70;;;2.30;99.90;;;;;;4998600;28;20029;-64
2021/03/19 03:35:42;;;;;;;73.05;44.65;;;2.30;99.90;;;;;;4998635;28;20041;-64
2021/03/19 03:38:13;;;;;;;70.18;42.22;;;2.20;99.90;;;;;;4998161;28;20110;-71
2021/03/19 03:40:53;;;;;;;73.35;44.13;;;2.20;99.90;;;;;;4997043;28;20038;-65
2021/03/19 03:43:19;;;;;;;75.85;45.17;;;2.20;99.90;;;;;;4997955;28;20029;-72
2021/03/19 03:45:46;;;;;;;75.22;45.75;;;2.10;99.90;;;;;;4998159;28;20028;-66
2021/03/19 03:48:15;;;;;;;72.45;44.45;;;2.10;99.90;;;;;;4998209;28;20019;-70
2021/03/19 03:50:42;;;;;;;77.25;47.00;;;2.10;99.90;;;;;;4996592;28;20055;-64
2021/03/19 03:53:10;;;;;;;74.45;45.88;;;2.10;99.90;;;;;;4997839;28;20080;-70
2021/03/19 03:55:38;;;;;;;72.82;47.22;;;2.20;99.90;;;;;;4996347;28;20035;-71
2021/03/19 03:58:05;;;;;;;74.45;45.45;;;2.10;99.90;;;;;;4995333;28;20042;-71
2021/03/19 04:00:31;;;;;;;74.43;46.08;;;2.10;99.90;;;;;;4996262;28;20090;-70
2021/03/19 04:03:00;;;;;;;78.68;48.08;;;2.20;99.90;;;;;;4995750;28;20018;-71
2021/03/19 04:05:31;;;;;;;73.38;44.92;;;2.20;99.90;;;;;;4997841;28;20022;-70
2021/03/19 04:07:57;;;;;;;70.90;45.50;;;2.30;99.90;;;;;;4998528;28;20089;-64
2021/03/19 04:10:23;;;;;;;70.90;45.42;;;2.20;99.90;;;;;;4998396;28;20042;-64
2021/03/19 04:12:50;;;;;;;71.55;45.88;;;2.30;99.90;;;;;;4998160;28;20547;-64
2021/03/19 04:15:18;;;;;;;72.22;44.90;;;2.30;99.90;;;;;;4998503;28;20029;-70
2021/03/19 04:17:45;;;;;;;90.25;60.03;;;2.30;99.90;;;;;;4995880;28;20022;-64
2021/03/19 04:20:15;;;;;;;106.53;68.05;;;2.30;99.90;;;;;;4997319;28;20040;-70
2021/03/19 04:22:41;;;;;;;107.10;68.50;;;2.30;99.90;;;;;;4996205;28;20034;-70
2021/03/19 04:25:09;;;;;;;97.15;64.00;;;2.20;99.90;;;;;;4995129;28;20030;-70
2021/03/19 04:27:48;;;;;;;99.38;63.85;;;2.20;99.90;;;;;;4995758;28;20034;-64
2021/03/19 04:30:22;;;;;;;81.40;55.65;;;2.20;99.90;;;;;;4996059;28;20106;-70
2021/03/19 04:32:48;;;;;;;93.13;59.42;;;2.30;99.90;;;;;;4997858;28;20023;-71
2021/03/19 04:35:20;;;;;;;87.65;60.28;;;2.30;99.90;;;;;;4994178;28;20054;-65
2021/03/19 04:37:47;;;;;;;88.18;57.85;;;2.40;99.90;;;;;;4994333;28;20058;-65
2021/03/19 04:40:15;;;;;;;80.07;52.00;;;2.40;99.90;;;;;;4994838;28;20022;-67
2021/03/19 04:42:41;;;;;;;72.38;47.80;;;2.30;99.90;;;;;;4997242;28;20027;-66
2021/03/19 04:45:08;;;;;;;74.63;49.17;;;2.30;99.90;;;;;;4997364;28;20097;-67
2021/03/19 04:47:34;;;;;;;78.88;52.42;;;2.30;99.90;;;;;;4997667;28;20023;-67
2021/03/19 04:50:00;;;;;;;89.90;56.28;;;2.30;99.90;;;;;;4997370;28;20125;-67
2021/03/19 04:52:26;;;;;;;102.88;63.00;;;2.30;99.90;;;;;;4998588;28;20102;-71
2021/03/19 04:54:52;;;;;;;107.15;63.78;;;2.40;99.90;;;;;;4997867;28;20102;-67
2021/03/19 04:57:18;;;;;;;100.85;61.92;;;2.40;99.90;;;;;;4998275;28;20023;-71
2021/03/19 04:59:44;;;;;;;123.00;74.97;;;2.50;99.90;;;;;;4998185;28;20412;-67
2021/03/19 05:02:10;;;;;;;106.65;66.95;;;2.50;99.90;;;;;;4998248;28;20033;-64
2021/03/19 05:04:36;;;;;;;87.32;54.53;;;2.50;99.90;;;;;;4999132;28;20023;-69
2021/03/19 05:07:07;;;;;;;87.38;52.15;;;2.50;99.90;;;;;;4997630;28;20045;-65
2021/03/19 05:09:33;;;;;;;85.93;52.13;;;2.50;99.90;;;;;;5000773;28;20081;-64
2021/03/19 05:12:01;;;;;;;86.93;52.88;;;2.50;99.90;;;;;;4998829;28;20037;-65
2021/03/19 05:14:27;;;;;;;81.57;50.35;;;2.60;99.90;;;;;;4998672;28;20030;-70
2021/03/19 05:16:53;;;;;;;99.10;61.03;;;2.60;99.90;;;;;;4997998;28;20049;-71
2021/03/19 05:19:21;;;;;;;106.55;65.93;;;2.60;99.90;;;;;;4999668;28;20429;-67
2021/03/19 05:21:48;;;;;;;110.70;67.60;;;2.60;99.90;;;;;;5000032;28;20424;-71
2021/03/19 05:24:14;;;;;;;119.95;72.20;;;2.60;99.90;;;;;;4998829;28;20037;-64
2021/03/19 05:26:41;;;;;;;134.85;73.57;;;2.60;99.90;;;;;;5000826;28;20029;-65
2021/03/19 05:29:09;;;;;;;68.13;44.03;;;2.60;99.90;;;;;;4998462;28;20480;-70
2021/03/19 05:31:35;;;;;;;68.38;44.17;;;2.70;99.90;;;;;;4999494;28;20025;-70
2021/03/19 05:34:02;;;;;;;78.57;49.65;;;2.70;99.90;;;;;;4998855;28;20022;-69
2021/03/19 05:36:30;;;;;;;93.53;60.60;;;2.70;99.90;;;;;;4997881;28;20018;-69
2021/03/19 05:38:56;;;;;;;102.28;67.95;;;2.60;99.90;;;;;;4997137;28;20091;-71
2021/03/19 05:41:27;;;;;;;91.30;60.80;;;2.60;99.90;;;;;;4997694;28;20031;-67
2021/03/19 05:43:55;;;;;;;98.70;62.90;;;2.50;99.90;;;;;;4997633;28;20033;-67
2021/03/19 05:46:31;;;;;;;107.97;68.90;;;2.50;99.90;;;;;;4996980;28;20372;-71
2021/03/19 05:49:13;;;;;;;140.65;88.75;;;2.70;99.90;;;;;;4996388;28;20073;-71
2021/03/19 05:51:42;;;;;;;100.72;64.57;;;2.70;99.90;;;;;;4997490;28;20086;-69
2021/03/19 05:54:30;;;;;;;90.97;59.42;;;2.70;99.90;;;;;;4997256;28;20049;-71
2021/03/19 05:57:04;;;;;;;109.78;67.53;;;2.80;99.90;;;;;;4998114;28;20412;-71
2021/03/19 05:59:31;;;;;;;121.78;79.25;;;2.70;99.90;;;;;;4996626;28;20672;-67
2021/03/19 06:01:58;;;;;;;126.40;79.20;;;2.60;99.90;;;;;;4998493;28;20093;-70
2021/03/19 06:04:28;;;;;;;92.40;61.45;;;2.60;99.90;;;;;;4998600;28;20489;-70
2021/03/19 06:07:01;;;;;;;153.55;94.07;;;2.50;99.90;;;;;;4996645;28;20022;-65
2021/03/19 06:09:39;;;;;;;202.77;92.95;;;2.50;99.90;;;;;;4998122;28;20028;-68
2021/03/19 06:12:10;;;;;;;225.52;99.90;;;2.40;99.90;;;;;;4997849;28;20518;-71
2021/03/19 06:14:48;;;;;;;144.07;69.00;;;2.40;99.90;;;;;;4997565;28;20022;-68
2021/03/19 06:17:28;;;;;;;202.90;80.82;;;2.40;99.90;;;;;;4998423;28;20030;-71
2021/03/19 06:20:02;;;;;;;148.40;70.38;;;2.50;99.90;;;;;;4997762;28;20468;-71
2021/03/19 06:22:39;;;;;;;173.90;73.10;;;2.50;99.90;;;;;;4997904;28;20030;-71
2021/03/19 06:25:25;;;;;;;111.00;53.97;;;2.60;99.90;;;;;;4996120;28;20025;-65
2021/03/19 06:27:57;;;;;;;97.13;52.00;;;2.70;99.90;;;;;;4996593;28;20532;-67
2021/03/19 06:30:25;;;;;;;109.43;57.38;;;2.80;99.90;;;;;;4997242;28;20114;-67
2021/03/19 06:33:12;;;;;;;115.07;62.03;;;2.80;99.90;;;;;;4996911;28;20026;-71
2021/03/19 06:35:43;;;;;;;122.82;67.50;;;2.90;99.90;;;;;;4996308;28;20125;-72
2021/03/19 06:38:25;;;;;;;118.43;65.75;;;3.00;99.90;;;;;;4996243;28;20061;-68
2021/03/19 06:40:52;;;;;;;114.38;61.40;;;3.10;99.90;;;;;;4996124;28;20038;-65
2021/03/19 06:43:22;;;;;;;67.85;43.50;;;3.20;99.90;;;;;;4995725;28;20085;-71
2021/03/19 06:46:08;;;;;;;68.80;42.50;;;3.20;99.90;;;;;;4995265;28;20037;-65
2021/03/19 06:48:45;;;;;;;68.90;42.22;;;3.30;99.90;;;;;;4995415;28;20105;-71
2021/03/19 06:51:28;;;;;;;79.15;46.58;;;3.50;99.90;;;;;;4995356;28;20427;-71
2021/03/19 06:53:57;;;;;;;74.30;47.08;;;3.70;99.90;;;;;;4995608;28;20105;-65
2021/03/19 06:56:23;;;;;;;68.85;43.97;;;3.80;99.90;;;;;;4995678;28;20018;-68
2021/03/19 06:58:50;;;;;;;52.60;33.95;;;3.80;99.90;;;;;;4995007;28;20477;-69
2021/03/19 07:01:32;;;;;;;69.32;44.35;;;3.80;99.90;;;;;;4994972;28;20380;-68
2021/03/19 07:04:08;;;;;;;61.10;38.33;;;4.00;99.90;;;;;;4994166;28;20473;-65
2021/03/19 07:07:04;;;;;;;45.47;30.95;;;4.20;99.90;;;;;;4984520;28;20046;-66
2021/03/19 07:09:51;;;;;;;72.57;44.22;;;4.10;99.90;;;;;;4975598;28;20027;-71
2021/03/19 07:12:24;;;;;;;58.63;38.22;;;4.10;99.90;;;;;;4976876;28;20121;-65
2021/03/19 07:15:15;;;;;;;296.50;142.85;;;4.00;99.90;;;;;;4977417;28;20023;-68
2021/03/19 07:17:54;;;;;;;344.70;154.75;;;4.10;99.90;;;;;;4977511;28;20030;-67
2021/03/19 07:20:42;;;;;;;243.18;104.85;;;4.00;99.90;;;;;;4977731;28;20034;-67
2021/03/19 07:23:19;;;;;;;578.58;237.35;;;3.90;99.90;;;;;;4977618;28;20058;-72
2021/03/19 07:26:02;;;;;;;587.17;216.55;;;4.00;99.90;;;;;;4979518;28;20031;-65
2021/03/19 07:28:58;;;;;;;269.02;98.38;;;3.90;99.90;;;;;;4977129;28;20026;-72
2021/03/19 07:31:33;;;;;;;140.02;88.18;;;4.00;99.90;;;;;;4975152;28;20086;-72
2021/03/19 07:34:29;;;;;;;68.82;40.50;;;4.00;99.90;;;;;;4975933;28;20023;-69
2021/03/19 07:37:19;;;;;;;69.57;45.15;;;4.10;99.90;;;;;;4976435;28;20385;-69
2021/03/19 07:40:14;;;;;;;70.82;40.25;;;4.40;99.90;;;;;;4974425;28;20031;-65
2021/03/19 07:43:17;;;;;;;55.88;34.58;;;4.60;99.90;;;;;;4975850;28;20073;-72
2021/03/19 07:46:20;;;;;;;42.33;30.25;;;4.60;99.90;;;;;;4994002;28;20536;-71
2021/03/19 07:49:16;;;;;;;53.53;31.73;;;4.80;99.90;;;;;;4994411;28;20385;-65
2021/03/19 07:52:40;;;;;;;59.38;34.05;;;4.90;99.90;;;;;;4991533;28;20038;-66
2021/03/19 07:55:31;;;;;;;25.63;18.70;;;5.20;99.90;;;;;;4973336;28;20031;-65
2021/03/19 07:58:19;;;;;;;24.45;18.80;;;5.30;99.40;;;;;;4975179;28;20027;-72
2021/03/19 08:00:51;;;;;;;24.88;17.80;;;5.20;99.10;;;;;;4973752;28;20042;-72
2021/03/19 08:03:31;;;;;;;23.60;16.98;;;5.20;97.20;;;;;;4974502;28;20043;-67
2021/03/19 08:06:02;;;;;;;25.23;18.02;;;5.10;98.40;;;;;;4975133;28;20054;-65
2021/03/19 08:09:06;;;;;;;42.90;28.17;;;5.30;98.50;;;;;;4976514;28;20031;-66
2021/03/19 08:11:43;;;;;;;46.00;29.98;;;5.30;99.20;;;;;;4968365;28;20038;-68
2021/03/19 08:14:42;;;;;;;57.78;35.33;;;5.40;97.50;;;;;;4972381;28;20027;-66
2021/03/19 08:17:52;;;;;;;64.70;36.85;;;5.40;97.30;;;;;;4973828;28;20497;-64
2021/03/19 08:20:30;;;;;;;71.63;40.08;;;5.30;97.50;;;;;;4916890;29;20168;-64
2021/03/19 08:23:30;;;;;;;105.53;54.92;;;5.30;98.40;;;;;;4912981;29;20036;-68
2021/03/19 08:25:56;;;;;;;49.40;31.30;;;5.20;97.60;;;;;;4932444;29;20034;-65
2021/03/19 08:28:28;;;;;;;27.73;19.35;;;5.10;97.10;;;;;;4946684;29;20020;-66
2021/03/19 08:31:09;;;;;;;30.17;21.92;;;5.10;98.80;;;;;;4946949;29;20087;-67
2021/03/19 08:33:34;;;;;;;38.95;23.92;;;5.00;98.70;;;;;;4941585;29;20024;-66
2021/03/19 08:36:23;;;;;;;32.75;22.00;;;4.80;99.20;;;;;;4942994;29;20119;-66
2021/03/19 08:38:54;;;;;;;28.10;19.25;;;5.10;99.90;;;;;;4928209;29;20028;-67
2021/03/19 08:41:28;;;;;;;30.27;20.20;;;5.20;99.90;;;;;;4942360;29;20152;-68
2021/03/19 08:43:58;;;;;;;30.23;21.05;;;5.30;99.80;;;;;;4942032;29;20534;-71
2021/03/19 08:46:30;;;;;;;31.33;22.23;;;5.50;99.70;;;;;;4941329;29;20047;-73
2021/03/19 08:49:03;;;;;;;25.85;18.35;;;5.50;99.50;;;;;;4939694;29;20038;-71
2021/03/19 08:51:30;;;;;;;25.65;18.10;;;5.40;98.60;;;;;;4940885;29;20418;-69
2021/03/19 08:54:12;;;;;;;24.98;18.08;;;5.50;98.90;;;;;;4924100;29;20054;-68
2021/03/19 08:56:54;;;;;;;26.52;18.23;;;5.50;98.10;;;;;;4974190;28;20039;-67
2021/03/19 08:59:35;;;;;;;33.60;23.48;;;5.60;99.40;;;;;;4980670;28;20030;-67
2021/03/19 09:02:04;;;;;;;47.60;28.83;;;5.70;99.10;;;;;;4979995;28;20026;-68
2021/03/19 09:04:52;;;;;;;57.95;34.88;;;5.70;98.20;;;;;;4979730;28;20436;-65
2021/03/19 09:07:27;;;;;;;40.65;27.38;;;5.80;99.00;;;;;;4978470;28;20027;-66
2021/03/19 09:09:56;;;;;;;28.17;19.25;;;6.20;99.20;;;;;;4978849;28;20053;-67
2021/03/19 09:12:25;;;;;;;28.23;19.25;;;6.50;98.40;;;;;;4980580;28;20034;-71
2021/03/19 09:15:12;;;;;;;25.05;17.23;;;6.70;97.90;;;;;;4978841;28;20023;-68
2021/03/19 09:17:47;;;;;;;26.23;16.98;;;6.80;97.50;;;;;;4976939;28;20524;-70
2021/03/19 09:20:40;;;;;;;31.55;20.95;;;6.80;94.60;;;;;;4978242;28;20031;-72
2021/03/19 09:23:09;;;;;;;28.67;18.83;;;6.50;94.60;;;;;;4978471;28;20065;-66
2021/03/19 09:25:40;;;;;;;54.67;30.45;;;6.40;94.00;;;;;;4980376;28;20042;-72
2021/03/19 09:28:54;;;;;;;25.25;17.92;;;7.00;96.30;;;;;;4977805;28;20105;-68
2021/03/19 09:31:26;;;;;;;26.65;17.30;;;7.50;94.20;;;;;;4987274;28;20046;-68
2021/03/19 09:33:51;;;;;;;31.48;19.80;;;8.10;92.60;;;;;;5001313;28;20022;-65
2021/03/19 09:36:50;;;;;;;59.95;36.60;;;7.80;90.40;;;;;;4999305;28;20030;-65
2021/03/19 09:39:46;;;;;;;35.22;21.83;;;8.00;88.70;;;;;;5000546;28;20034;-66
2021/03/19 09:42:32;;;;;;;59.67;35.45;;;8.80;93.10;;;;;;5002114;28;20030;-73
2021/03/19 09:45:02;;;;;;;122.10;63.85;;;8.50;87.80;;;;;;4993353;28;20389;-73
2021/03/19 09:47:40;;;;;;;38.28;23.00;;;8.00;86.90;;;;;;5001405;28;20033;-71
2021/03/19 09:50:26;;;;;;;67.28;37.42;;;8.30;85.00;;;;;;5000251;28;20408;-70
2021/03/19 09:52:59;;;;;;;27.15;19.52;;;8.00;90.60;;;;;;5001167;28;20108;-73
2021/03/19 09:55:42;;;;;;;23.20;16.60;;;8.60;92.00;;;;;;5001628;28;20023;-66
2021/03/19 09:58:31;;;;;;;25.38;19.48;;;8.20;90.50;;;;;;5001491;28;20022;-67
2021/03/19 10:00:58;;;;;;;29.95;21.27;;;8.30;90.80;;;;;;5001954;28;20040;-76
2021/03/19 10:03:24;;;;;;;44.20;28.15;;;8.20;92.40;;;;;;5000475;28;20034;-70
2021/03/19 10:05:50;;;;;;;42.38;27.08;;;8.10;90.20;;;;;;4994943;28;20042;-66
2021/03/19 10:08:31;;;;;;;33.70;21.15;;;8.30;92.80;;;;;;4985787;28;20113;-66
2021/03/19 10:11:10;;;;;;;23.60;16.05;;;8.40;91.80;;;;;;4985315;28;20033;-66
2021/03/19 10:13:36;;;;;;;26.23;18.40;;;7.80;86.50;;;;;;5016472;28;20033;-67
2021/03/19 10:16:03;;;;;;;26.55;18.70;;;7.60;89.80;;;;;;4984508;28;20026;-67
2021/03/19 10:18:40;;;;;;;23.90;16.85;;;8.00;94.20;;;;;;4985744;28;20101;-65
2021/03/19 10:21:21;;;;;;;33.58;22.17;;;8.10;86.10;;;;;;4985947;28;20038;-65
2021/03/19 10:23:54;;;;;;;39.97;24.70;;;8.60;92.80;;;;;;4985301;28;20022;-65
2021/03/19 10:26:21;;;;;;;32.78;20.42;;;;;;;;;;4984001;28;20031;-69
2021/03/19 10:28:51;;;;;;;63.97;39.13;;;9.40;85.00;;;;;;4980609;28;20054;-72
2021/03/19 10:31:23;;;;;;;32.47;21.30;;;9.90;83.00;;;;;;4981649;28;20027;-67
2021/03/19 10:34:07;;;;;;;23.92;17.25;;;10.90;89.70;;;;;;4991242;28;20049;-65
2021/03/19 10:36:47;;;;;;;22.48;16.15;;;11.00;82.40;;;;;;4998831;28;20031;-68
2021/03/19 10:39:55;;;;;;;23.95;17.08;;;10.80;79.20;;;;;;5001206;28;20484;-71
2021/03/19 10:42:33;;;;;;;22.90;15.68;;;11.10;87.80;;;;;;5000405;28;20061;-72
2021/03/19 10:45:14;;;;;;;20.30;15.27;;;11.50;80.60;;;;;;5001383;28;20066;-72
2021/03/19 10:47:53;;;;;;;18.27;14.30;;;11.70;80.50;;;;;;5001031;28;20023;-68
2021/03/19 10:50:52;;;;;;;19.35;14.45;;;11.80;70.80;;;;;;5001385;28;20101;-68
2021/03/19 10:53:27;;;;;;;18.48;14.25;;;10.90;74.20;;;;;;4997346;28;20060;-68
2021/03/19 10:55:53;;;;;;;19.73;14.90;;;10.30;77.90;;;;;;5000384;28;20117;-67
2021/03/19 10:58:22;;;;;;;18.60;14.13;;;10.50;81.10;;;;;;4997758;28;20102;-65
2021/03/19 11:00:50;;;;;;;19.35;14.98;;;9.90;79.40;;;;;;4987042;28;20118;-72
2021/03/19 11:03:49;;;;;;;19.45;15.52;;;9.50;81.20;;;;;;4977807;28;20027;-71
2021/03/19 11:06:40;;;;;;;18.50;14.02;;;9.90;90.50;;;;;;4969708;28;20038;-64
2021/03/19 11:09:11;;;;;;;19.27;14.52;;;11.10;87.40;;;;;;4977743;28;20015;-66
2021/03/19 11:11:39;;;;;;;17.10;13.65;;;12.00;86.20;;;;;;4978543;28;20503;-65
2021/03/19 11:14:09;;;;;;;15.77;13.15;;;12.20;80.80;;;;;;4978525;28;20019;-68
2021/03/19 11:16:43;;;;;;;19.45;14.68;;;11.90;79.10;;;;;;4978696;28;20039;-66
2021/03/19 11:19:19;;;;;;;17.65;13.85;;;10.90;74.10;;;;;;4977095;28;20035;-67
2021/03/19 11:22:10;;;;;;;16.52;12.95;;;11.50;79.40;;;;;;4977987;28;20422;-70
2021/03/19 11:24:40;;;;;;;16.35;13.30;;;12.10;72.00;;;;;;4978344;28;20547;-74
2021/03/19 11:27:25;;;;;;;21.20;14.80;;;12.10;71.40;;;;;;4979772;28;20026;-66
2021/03/19 11:29:51;;;;;;;;;;;12.40;70.90;;;;;;4980281;28;20025;-64
2021/03/19 11:32:18;;;;;;;16.35;12.55;;;12.60;74.90;;;;;;4979835;28;20249;-70
2021/03/19 11:34:52;;;;;;;15.85;12.80;;;12.20;73.00;;;;;;4980824;28;20023;-64
2021/03/19 11:37:24;;;;;;;16.75;13.55;;;12.00;75.40;;;;;;4980594;28;20462;-66
2021/03/19 11:39:52;;;;;;;17.98;13.13;;;12.20;75.90;;;;;;4979995;28;20026;-65
2021/03/19 11:42:21;;;;;;;22.83;16.45;;;12.60;74.00;;;;;;4976651;28;20019;-72
2021/03/19 11:44:52;;;;;;;31.17;23.27;;;12.30;71.30;;;;;;4980836;28;20061;-72
2021/03/19 11:47:20;;;;;;;30.05;20.17;;;11.50;72.00;;;;;;4977290;28;20031;-73
2021/03/19 11:49:47;;;;;;;22.90;16.60;;;12.10;77.60;;;;;;4975448;28;20021;-66
2021/03/19 11:52:15;;;;;;;17.80;13.50;;;11.80;65.60;;;;;;4980072;28;20019;-64
2021/03/19 11:54:41;;;;;;;32.10;23.27;;;11.30;68.60;;;;;;4979158;28;20023;-66
2021/03/19 11:57:09;;;;;;;33.47;21.40;;;11.30;72.30;;;;;;4980802;28;20023;-65
2021/03/19 11:59:35;;;;;;;16.25;12.77;;;11.80;75.10;;;;;;4981661;28;20022;-67
2021/03/19 12:02:05;;;;;;;16.25;12.60;;;11.80;73.80;;;;;;4977777;28;20030;-65
2021/03/19 12:04:31;;;;;;;17.40;12.75;;;11.80;73.70;;;;;;4982472;28;20055;-64
2021/03/19 12:06:57;;;;;;;28.73;20.27;;;10.80;65.30;;;;;;4982717;28;20023;-66
2021/03/19 12:09:24;;;;;;;20.17;15.32;;;10.20;63.50;;;;;;4980103;28;20581;-64
2021/03/19 12:11:50;;;;;;;21.75;15.10;;;9.90;71.70;;;;;;4982053;28;20030;-64
2021/03/19 12:14:26;;;;;;;15.63;11.77;;;9.70;68.20;;;;;;4987360;28;20487;-66
2021/03/19 12:16:52;;;;;;;26.30;18.83;;;9.60;70.60;;;;;;4988024;28;20032;-64
2021/03/19 12:19:19;;;;;;;20.48;14.57;;;9.30;69.40;;;;;;4989892;28;20030;-64
2021/03/19 12:21:46;;;;;;;29.40;20.63;;;9.40;76.40;;;;;;4987517;28;20536;-64
2021/03/19 12:24:12;;;;;;;31.65;21.42;;;9.10;76.00;;;;;;4986545;28;20043;-65
2021/03/19 12:26:38;;;;;;;28.02;20.42;;;9.00;75.30;;;;;;4982386;28;20019;-71
2021/03/19 12:29:04;;;;;;;35.80;23.00;;;8.80;78.60;;;;;;4978482;28;20022;-66
2021/03/19 12:31:30;;;;;;;18.90;14.82;;;8.80;78.30;;;;;;4980714;28;20033;-66
2021/03/19 12:33:56;;;;;;;27.20;18.77;;;8.70;80.70;;;;;;4978304;28;20027;-64
2021/03/19 12:36:22;;;;;;;22.90;15.60;;;8.70;83.00;;;;;;4978642;28;20081;-65
2021/03/19 12:38:48;;;;;;;29.45;19.67;;;8.50;81.50;;;;;;4979882;28;20073;-72
2021/03/19 12:41:15;;;;;;;24.40;17.95;;;8.40;82.60;;;;;;4981767;28;20042;-72
2021/03/19 12:43:41;;;;;;;20.10;15.15;;;8.70;87.00;;;;;;4983556;28;20022;-66
2021/03/19 12:46:07;;;;;;;16.77;12.18;;;8.80;84.20;;;;;;4982318;28;20018;-74
2021/03/19 12:48:33;;;;;;;18.95;12.65;;;8.60;77.50;;;;;;4981749;28;20037;-72
2021/03/19 12:50:59;;;;;;;59.00;27.00;;;8.50;76.20;;;;;;4980179;28;20046;-68
2021/03/19 12:53:25;;;;;;;22.35;16.33;;;8.50;80.80;;;;;;4978689;28;20117;-68
2021/03/19 12:55:52;;;;;;;21.35;14.57;;;8.60;87.60;;;;;;4976492;28;20023;-73
2021/03/19 12:58:20;;;;;;;18.42;13.48;;;8.70;88.20;;;;;;4979254;28;20018;-66
2021/03/19 13:00:47;;;;;;;24.48;16.50;;;8.70;88.20;;;;;;4980567;28;20042;-67
2021/03/19 13:03:13;;;;;;;21.83;15.48;;;8.80;87.70;;;;;;4981043;28;20082;-68
2021/03/19 13:05:41;;;;;;;20.40;15.48;;;8.70;83.60;;;;;;4982111;28;20019;-69
2021/03/19 13:08:07;;;;;;;17.38;13.98;;;8.50;85.90;;;;;;4982435;28;20086;-73